Detroit Lakes, MN

5:22 PM CST on February 25, 2017 (GMT -0600)
Detroit Lakes

Weather History for KDTL - March, 2014

Change the Weather History Date:

Thursday, March 13, 2014

  Actual Average Record
Temperature  
Mean Temperature 38 °F -  
Max Temperature 51 °F 35 °F 60 °F (2012)
Min Temperature 24 °F 15 °F -26 °F (1975)
Degree Days  
Heating Degree Days 28    
Moisture  
Dew Point 32 °F    
Average Humidity 82    
Maximum Humidity 100    
Minimum Humidity 54    
Precipitation  
Precipitation 0.00 in - - ()
Sea Level Pressure  
Sea Level Pressure 29.64 in    
Wind  
Wind Speed 9 mph (SW)    
Max Wind Speed 18 mph    
Max Gust Speed 24 mph    
Visibility 9 miles    
Events      
Averages and records for this station are not official NWS values.
T = Trace of Precipitation, MM = Missing Value Source: NWS Daily Summary

Daily Weather History Graph

Daily Weather History Graph

Search for Another Location

Airport or City:

Trip Planner

Search our weather history database for the weather conditions in past years. The results will help you decide how hot, cold, wet, or windy it might be!

Date:

Astronomy

Mar. 13, 2014 Rise Set
Actual Time 7:40 AM CDT 7:26 PM CDT
Civil Twilight 7:10 AM CDT 7:56 PM CDT
Nautical Twilight 6:34 AM CDT 8:32 PM CDT
Astronomical Twilight 5:58 AM CDT 9:08 PM CDT
Moon 4:46 PM CDT (3/13) 5:56 AM CDT (3/13)
Length of Visible Light 12h 46m
Length of Day
11h 46m
Waxing Gibbous, 91% of the Moon is Illuminated
Mar 13
Waxing Gibbous
Mar 16
Full
Mar 23
Last Quarter
Mar 30
New
Apr 7
First Quarter

Hourly Weather History & Observations

Time (CDT) Temp. Windchill Dew Point Humidity Pressure Visibility Wind Dir Wind Speed Gust Speed Precip Events Conditions
12:15 AM 28.4 °F 19.1 °F 26.6 °F 93% 29.85 in 10.0 mi South 10.4 mph - N/A   Clear
12:34 AM 28.4 °F 19.1 °F 26.6 °F 93% 29.85 in 10.0 mi South 10.4 mph - N/A   Clear
12:55 AM 28.4 °F 19.1 °F 26.6 °F 93% 29.83 in 10.0 mi South 10.4 mph - N/A   Clear
1:15 AM 28.4 °F 19.1 °F 26.6 °F 93% 29.82 in 10.0 mi South 10.4 mph - N/A   Clear
1:34 AM 28.4 °F 19.7 °F 26.6 °F 93% 29.81 in 10.0 mi SSW 9.2 mph - N/A   Clear
1:55 AM 28.4 °F 19.1 °F 26.6 °F 93% 29.81 in 10.0 mi SSW 10.4 mph - N/A   Clear
2:14 AM 28.4 °F 19.1 °F 26.6 °F 93% 29.80 in 10.0 mi SSW 10.4 mph - N/A   Clear
2:35 AM 28.4 °F 20.4 °F 28.4 °F 100% 29.80 in 10.0 mi SSW 8.1 mph - N/A   Clear
2:54 AM 28.4 °F 20.4 °F 28.4 °F 100% 29.80 in 10.0 mi SSW 8.1 mph - N/A   Clear
3:14 AM 28.4 °F 19.7 °F 28.4 °F 100% 29.79 in 10.0 mi SSW 9.2 mph - N/A   Clear
3:35 AM 28.4 °F 19.7 °F 28.4 °F 100% 29.78 in 10.0 mi SSW 9.2 mph - N/A   Clear
3:54 AM 28.4 °F 20.4 °F 28.4 °F 100% 29.78 in 10.0 mi SW 8.1 mph - N/A   Clear
4:14 AM 28.4 °F 20.4 °F 28.4 °F 100% 29.77 in 10.0 mi SSW 8.1 mph - N/A   Clear
4:35 AM 28.4 °F 20.4 °F 28.4 °F 100% 29.76 in 7.0 mi SW 8.1 mph - N/A   Clear
4:55 AM 28.4 °F 19.1 °F 28.4 °F 100% 29.76 in 7.0 mi SW 10.4 mph - N/A   Clear
5:14 AM 28.4 °F 20.4 °F 28.4 °F 100% 29.76 in 7.0 mi SW 8.1 mph - N/A   Clear
5:35 AM 28.4 °F 22.2 °F 26.6 °F 93% 29.75 in 7.0 mi SW 5.8 mph - N/A   Clear
5:55 AM 26.6 °F 21.2 °F 26.6 °F 100% 29.75 in 7.0 mi SSW 4.6 mph - N/A   Clear
6:14 AM 26.6 °F 20.0 °F 26.6 °F 100% 29.75 in 5.0 mi SSW 5.8 mph - N/A   Clear
6:35 AM 26.6 °F 19.1 °F 26.6 °F 100% 29.74 in 5.0 mi South 6.9 mph - N/A   Clear
6:54 AM 24.8 °F 16.9 °F 24.8 °F 100% 29.74 in 5.0 mi SSW 6.9 mph - N/A   Clear
7:15 AM 26.6 °F 20.0 °F 26.6 °F 100% 29.73 in 7.0 mi SSW 5.8 mph - N/A   Clear
7:34 AM 26.6 °F 19.1 °F 26.6 °F 100% 29.72 in 7.0 mi SSW 6.9 mph - N/A   Clear
7:55 AM 26.6 °F 20.0 °F 26.6 °F 100% 29.72 in 5.0 mi SSW 5.8 mph - N/A   Clear
8:15 AM 26.6 °F 20.0 °F 26.6 °F 100% 29.71 in 5.0 mi SSW 5.8 mph - N/A   Clear
8:34 AM 28.4 °F 23.3 °F 28.4 °F 100% 29.71 in 7.0 mi South 4.6 mph - N/A   Clear
8:55 AM 28.4 °F 21.2 °F 28.4 °F 100% 29.70 in 10.0 mi SSW 6.9 mph - N/A   Clear
9:15 AM 30.2 °F 24.3 °F 30.2 °F 100% 29.69 in 10.0 mi SSW 5.8 mph - N/A   Clear
9:34 AM 32.0 °F 27.5 °F 30.2 °F 93% 29.68 in 10.0 mi South 4.6 mph - N/A   Clear
9:55 AM 33.8 °F 29.6 °F 32.0 °F 93% 29.68 in 10.0 mi SSW 4.6 mph - N/A   Clear
10:15 AM 35.6 °F 29.9 °F 32.0 °F 87% 29.67 in 10.0 mi SSW 6.9 mph - N/A   Clear
10:34 AM 37.4 °F 30.8 °F 32.0 °F 81% 29.66 in 10.0 mi SW 9.2 mph - N/A   Clear
10:55 AM 37.4 °F 30.8 °F 32.0 °F 81% 29.66 in 10.0 mi SW 9.2 mph - N/A   Clear
11:15 AM 39.2 °F 33.6 °F 32.0 °F 75% 29.65 in 10.0 mi SSW 8.1 mph - N/A   Clear
11:34 AM 39.2 °F 33.6 °F 32.0 °F 75% 29.65 in 10.0 mi SW 8.1 mph - N/A   Clear
11:55 AM 41.0 °F 34.7 °F 32.0 °F 70% 29.63 in 10.0 mi SW 10.4 mph - N/A   Clear
12:15 PM 41.0 °F 35.8 °F 32.0 °F 70% 29.62 in 10.0 mi SSW 8.1 mph - N/A   Clear
12:34 PM 41.0 °F 35.8 °F 32.0 °F 70% 29.62 in 10.0 mi SW 8.1 mph - N/A   Clear
12:55 PM 41.0 °F 33.9 °F 32.0 °F 70% 29.61 in 10.0 mi SW 12.7 mph 18.4 mph N/A   Clear
1:15 PM 42.8 °F 36.2 °F 33.8 °F 70% 29.60 in 10.0 mi SW 12.7 mph - N/A   Clear
1:34 PM 42.8 °F 35.8 °F 33.8 °F 70% 29.59 in 10.0 mi SW 13.8 mph 17.3 mph N/A   Clear
1:55 PM 44.6 °F 38.1 °F 33.8 °F 66% 29.57 in 10.0 mi SSW 13.8 mph 19.6 mph N/A   Clear
2:15 PM 44.6 °F 38.8 °F 33.8 °F 66% 29.56 in 10.0 mi SSW 11.5 mph - N/A   Clear
2:34 PM 44.6 °F 38.4 °F 35.6 °F 71% 29.55 in 10.0 mi SSW 12.7 mph 17.3 mph N/A   Clear
2:55 PM 46.4 °F 40.4 °F 35.6 °F 66% 29.54 in 10.0 mi SW 13.8 mph - N/A   Clear
3:15 PM 46.4 °F 41.1 °F 35.6 °F 66% 29.54 in 10.0 mi SSW 11.5 mph - N/A   Clear
3:34 PM 46.4 °F 41.9 °F 37.4 °F 71% 29.53 in 10.0 mi SW 9.2 mph - N/A   Clear
3:55 PM 50.0 °F - 37.4 °F 62% 29.52 in 10.0 mi SW 8.1 mph - N/A   Clear
4:15 PM 51.8 °F - 35.6 °F 54% 29.51 in 10.0 mi SW 11.5 mph 16.1 mph N/A   Clear
4:34 PM 51.8 °F - 35.6 °F 54% 29.51 in 10.0 mi SW 11.5 mph - N/A   Clear
4:55 PM 51.8 °F - 35.6 °F 54% 29.50 in 10.0 mi SW 8.1 mph - N/A   Clear
5:15 PM 51.8 °F - 35.6 °F 54% 29.49 in 10.0 mi WSW 10.4 mph - N/A   Clear
5:34 PM 51.8 °F - 37.4 °F 58% 29.49 in 10.0 mi West 9.2 mph - N/A   Clear
5:55 PM 50.0 °F - 35.6 °F 58% 29.49 in 10.0 mi West 9.2 mph - N/A   Clear
6:15 PM 50.0 °F - 35.6 °F 58% 29.50 in 10.0 mi West 8.1 mph - N/A   Clear
6:34 PM 50.0 °F - 35.6 °F 58% 29.50 in 10.0 mi West 6.9 mph - N/A   Clear
6:55 PM 46.4 °F 44.3 °F 35.6 °F 66% 29.49 in 10.0 mi WSW 4.6 mph - N/A   Clear
7:15 PM 46.4 °F 45.2 °F 35.6 °F 66% 29.49 in 10.0 mi WSW 3.5 mph - N/A   Clear
7:35 PM 46.4 °F 45.2 °F 35.6 °F 66% 29.50 in 10.0 mi WSW 3.5 mph - N/A   Clear
7:55 PM 44.6 °F 42.2 °F 35.6 °F 71% 29.50 in 10.0 mi WSW 4.6 mph - N/A   Clear
8:15 PM 44.6 °F 39.7 °F 35.6 °F 71% 29.51 in 10.0 mi West 9.2 mph - N/A   Clear
8:34 PM 44.6 °F 38.4 °F 35.6 °F 71% 29.51 in 10.0 mi West 12.7 mph - N/A   Clear
8:55 PM 44.6 °F 38.8 °F 35.6 °F 71% 29.51 in 10.0 mi WNW 11.5 mph 16.1 mph N/A   Clear
9:15 PM 42.8 °F 37.5 °F 35.6 °F 76% 29.51 in 10.0 mi NW 9.2 mph - N/A   Clear
9:34 PM 42.8 °F 35.4 °F 35.6 °F 76% 29.52 in 10.0 mi NW 15.0 mph - N/A   Clear
9:55 PM 41.0 °F 33.9 °F 35.6 °F 81% 29.52 in 10.0 mi NW 12.7 mph - N/A   Clear
10:15 PM 41.0 °F 32.2 °F 33.8 °F 76% 29.52 in 10.0 mi NW 18.4 mph 23.0 mph N/A   Clear
10:35 PM 39.2 °F 30.2 °F 33.8 °F 81% 29.53 in 10.0 mi NW 17.3 mph - N/A   Clear
10:55 PM 37.4 °F 27.8 °F 33.8 °F 87% 29.53 in 10.0 mi NW 17.3 mph 24.2 mph N/A   Clear
11:15 PM 37.4 °F 27.8 °F 33.8 °F 87% 29.53 in 10.0 mi NW 17.3 mph - N/A   Clear
11:34 PM 37.4 °F 28.5 °F 32.0 °F 81% 29.54 in 10.0 mi WNW 15.0 mph - N/A   Clear
11:55 PM 35.6 °F 26.2 °F 32.0 °F 87% 29.54 in 10.0 mi NW 15.0 mph - N/A   Clear